Terminal Aerodrome Forecast
Issued by NWS

Home | Current Version | Previous Version | Text Only | Print | Product List | Glossary On
Versions: 1 2 3 4 5 6 7 8 9 10 11 12 13 14 15 16 17 18 19 20 21 22 23 24 25 26 27 28 29 30 31 32 33 34 35 36 37 38 39 40 41 42 43 44 45 46 47 48 49 50
000
FTUS43 KDMX 230143 AAA
TAFMCW
TAF AMD
KMCW 230143Z 2302/2324 11009KT 1 1/2SM -RA BR OVC002
     FM230700 01012KT 2SM -SN BR OVC003
     FM231100 01012KT 1SM -SN BR OVC003
     FM231700 34014KT 2SM -SN OVC009
     FM232000 33015KT 4SM -SN BR OVC012=

USA.gov is the U.S. government's official web portal to all federal, state and local government web resources and services.